sensor_id;sensor_type;location;lat;lon;timestamp;pressure;altitude;pressure_sealevel;temperature;humidity
829;BME280;396;52.558;13.188;2023-05-02T00:01:25;100808.84;;;11.73;82.75
829;BME280;396;52.558;13.188;2023-05-02T00:03:51;100804.53;;;11.72;82.80
829;BME280;396;52.558;13.188;2023-05-02T00:06:18;100801.63;;;11.68;83.26
829;BME280;396;52.558;13.188;2023-05-02T00:08:47;100799.53;;;11.65;83.25
829;BME280;396;52.558;13.188;2023-05-02T00:11:15;100805.88;;;11.60;83.17
829;BME280;396;52.558;13.188;2023-05-02T00:13:42;100798.13;;;11.54;83.34
829;BME280;396;52.558;13.188;2023-05-02T00:16:09;100805.78;;;11.52;83.27
829;BME280;396;52.558;13.188;2023-05-02T00:18:36;100803.75;;;11.44;84.18
829;BME280;396;52.558;13.188;2023-05-02T00:21:03;100804.06;;;11.42;82.81
829;BME280;396;52.558;13.188;2023-05-02T00:23:29;100799.94;;;11.31;81.25
829;BME280;396;52.558;13.188;2023-05-02T00:25:56;100804.88;;;11.29;78.52
829;BME280;396;52.558;13.188;2023-05-02T00:28:24;100813.38;;;11.22;78.36
829;BME280;396;52.558;13.188;2023-05-02T00:30:51;100799.50;;;11.10;78.52
829;BME280;396;52.558;13.188;2023-05-02T00:33:18;100802.09;;;11.01;78.71
829;BME280;396;52.558;13.188;2023-05-02T00:35:44;100804.91;;;10.96;79.39
829;BME280;396;52.558;13.188;2023-05-02T00:38:11;100802.06;;;10.88;80.40
829;BME280;396;52.558;13.188;2023-05-02T00:40:44;100794.03;;;10.82;81.47
829;BME280;396;52.558;13.188;2023-05-02T00:43:12;100804.56;;;10.84;82.71
829;BME280;396;52.558;13.188;2023-05-02T00:45:41;100787.59;;;10.78;83.82
829;BME280;396;52.558;13.188;2023-05-02T00:48:08;100805.97;;;10.81;83.67
829;BME280;396;52.558;13.188;2023-05-02T00:50:36;100800.84;;;10.80;84.11
829;BME280;396;52.558;13.188;2023-05-02T00:53:03;100796.25;;;10.80;83.99
829;BME280;396;52.558;13.188;2023-05-02T00:55:31;100802.38;;;10.86;83.60
829;BME280;396;52.558;13.188;2023-05-02T00:57:58;100797.25;;;10.84;84.03
829;BME280;396;52.558;13.188;2023-05-02T01:03:28;100796.19;;;10.99;83.34
829;BME280;396;52.558;13.188;2023-05-02T01:06:05;100801.31;;;11.01;84.01
829;BME280;396;52.558;13.188;2023-05-02T01:08:39;100811.56;;;11.04;83.84
829;BME280;396;52.558;13.188;2023-05-02T01:11:14;100806.03;;;11.09;83.63
829;BME280;396;52.558;13.188;2023-05-02T01:13:42;100806.75;;;11.15;83.42
829;BME280;396;52.558;13.188;2023-05-02T01:16:11;100809.34;;;11.20;83.07
829;BME280;396;52.558;13.188;2023-05-02T01:18:41;100802.53;;;11.22;82.37
829;BME280;396;52.558;13.188;2023-05-02T01:21:08;100810.09;;;11.25;81.16
829;BME280;396;52.558;13.188;2023-05-02T01:23:42;100813.88;;;11.24;77.03
829;BME280;396;52.558;13.188;2023-05-02T01:26:17;100812.28;;;11.23;75.59
829;BME280;396;52.558;13.188;2023-05-02T01:28:59;100817.69;;;11.23;74.59
829;BME280;396;52.558;13.188;2023-05-02T01:31:30;100817.41;;;11.25;73.54
829;BME280;396;52.558;13.188;2023-05-02T01:33:58;100822.63;;;11.21;73.14
829;BME280;396;52.558;13.188;2023-05-02T01:36:28;100822.63;;;11.21;73.59
829;BME280;396;52.558;13.188;2023-05-02T01:38:56;100821.41;;;11.14;73.75
829;BME280;396;52.558;13.188;2023-05-02T01:41:25;100831.13;;;11.15;74.84
829;BME280;396;52.558;13.188;2023-05-02T01:43:53;100837.66;;;11.14;76.38
829;BME280;396;52.558;13.188;2023-05-02T01:46:22;100836.44;;;11.06;78.37
829;BME280;396;52.558;13.188;2023-05-02T01:48:51;100827.81;;;11.04;79.13
829;BME280;396;52.558;13.188;2023-05-02T01:51:19;100840.47;;;11.08;79.98
829;BME280;396;52.558;13.188;2023-05-02T01:53:47;100832.44;;;11.03;80.12
829;BME280;396;52.558;13.188;2023-05-02T01:56:16;100842.97;;;11.05;79.16
829;BME280;396;52.558;13.188;2023-05-02T01:58:44;100847.72;;;11.13;78.52
829;BME280;396;52.558;13.188;2023-05-02T02:01:14;100853.56;;;11.20;78.31
829;BME280;396;52.558;13.188;2023-05-02T02:03:43;100852.94;;;11.23;77.76
829;BME280;396;52.558;13.188;2023-05-02T02:06:12;100858.38;;;11.23;77.66
829;BME280;396;52.558;13.188;2023-05-02T02:08:39;100855.16;;;11.21;77.95
829;BME280;396;52.558;13.188;2023-05-02T02:11:08;100857.78;;;11.26;77.41
829;BME280;396;52.558;13.188;2023-05-02T02:13:42;100861.59;;;11.25;77.70
829;BME280;396;52.558;13.188;2023-05-02T02:16:13;100862.41;;;11.26;78.25
829;BME280;396;52.558;13.188;2023-05-02T02:18:46;100858.16;;;11.20;78.26
829;BME280;396;52.558;13.188;2023-05-02T02:21:16;100857.56;;;11.23;77.95
829;BME280;396;52.558;13.188;2023-05-02T02:23:46;100868.63;;;11.26;78.06
829;BME280;396;52.558;13.188;2023-05-02T02:26:14;100872.66;;;11.29;78.07
829;BME280;396;52.558;13.188;2023-05-02T02:28:43;100867.31;;;11.24;78.08
829;BME280;396;52.558;13.188;2023-05-02T02:31:10;100869.44;;;11.27;77.43
829;BME280;396;52.558;13.188;2023-05-02T02:33:37;100873.53;;;11.24;77.41
829;BME280;396;52.558;13.188;2023-05-02T02:36:08;100879.03;;;11.19;77.58
829;BME280;396;52.558;13.188;2023-05-02T02:38:41;100879.78;;;11.25;76.96
829;BME280;396;52.558;13.188;2023-05-02T02:41:13;100882.50;;;11.25;75.68
829;BME280;396;52.558;13.188;2023-05-02T02:43:47;100891.66;;;11.29;75.97
829;BME280;396;52.558;13.188;2023-05-02T02:46:28;100891.44;;;11.25;76.31
829;BME280;396;52.558;13.188;2023-05-02T02:49:12;100894.72;;;11.22;76.63
829;BME280;396;52.558;13.188;2023-05-02T02:51:45;100905.34;;;11.19;76.22
829;BME280;396;52.558;13.188;2023-05-02T02:54:19;100909.53;;;11.11;76.19
829;BME280;396;52.558;13.188;2023-05-02T02:56:51;100919.97;;;11.04;77.56
829;BME280;396;52.558;13.188;2023-05-02T02:59:27;100921.16;;;10.98;78.97
829;BME280;396;52.558;13.188;2023-05-02T03:02:00;100920.72;;;10.91;80.61
829;BME280;396;52.558;13.188;2023-05-02T03:04:29;100931.88;;;10.89;81.06
829;BME280;396;52.558;13.188;2023-05-02T03:06:59;100927.84;;;10.86;81.46
829;BME280;396;52.558;13.188;2023-05-02T03:09:26;100941.38;;;10.86;81.43
829;BME280;396;52.558;13.188;2023-05-02T03:11:54;100940.06;;;10.84;81.92
829;BME280;396;52.558;13.188;2023-05-02T03:14:21;100948.56;;;10.77;82.15
829;BME280;396;52.558;13.188;2023-05-02T03:16:48;100958.06;;;10.75;83.39
829;BME280;396;52.558;13.188;2023-05-02T03:19:16;100961.38;;;10.72;83.44
829;BME280;396;52.558;13.188;2023-05-02T03:21:42;100963.56;;;10.70;83.87
829;BME280;396;52.558;13.188;2023-05-02T03:24:11;100969.06;;;10.65;83.87
829;BME280;396;52.558;13.188;2023-05-02T03:26:37;100971.91;;;10.54;83.90
829;BME280;396;52.558;13.188;2023-05-02T03:29:04;100962.47;;;10.52;84.40
829;BME280;396;52.558;13.188;2023-05-02T03:31:31;100965.75;;;10.49;85.19
829;BME280;396;52.558;13.188;2023-05-02T03:33:57;100964.78;;;10.40;85.33
829;BME280;396;52.558;13.188;2023-05-02T03:36:24;100979.56;;;10.28;86.23
829;BME280;396;52.558;13.188;2023-05-02T03:38:51;100980.34;;;10.29;86.24
829;BME280;396;52.558;13.188;2023-05-02T03:41:19;100980.38;;;10.24;86.08
829;BME280;396;52.558;13.188;2023-05-02T03:43:46;100984.81;;;10.15;86.85
829;BME280;396;52.558;13.188;2023-05-02T03:46:12;100991.63;;;10.12;87.19
829;BME280;396;52.558;13.188;2023-05-02T03:48:39;100994.13;;;10.03;87.80
829;BME280;396;52.558;13.188;2023-05-02T03:51:06;100993.34;;;10.03;88.17
829;BME280;396;52.558;13.188;2023-05-02T03:53:34;100999.84;;;10.02;87.43
829;BME280;396;52.558;13.188;2023-05-02T03:56:00;101003.69;;;9.96;85.36
829;BME280;396;52.558;13.188;2023-05-02T03:58:28;100995.97;;;9.84;85.21
829;BME280;396;52.558;13.188;2023-05-02T04:00:55;100991.13;;;9.81;84.60
829;BME280;396;52.558;13.188;2023-05-02T04:03:22;100999.34;;;9.71;84.84
829;BME280;396;52.558;13.188;2023-05-02T04:05:48;101013.13;;;9.69;85.29
829;BME280;396;52.558;13.188;2023-05-02T04:08:16;101018.28;;;9.71;84.81
829;BME280;396;52.558;13.188;2023-05-02T04:10:43;101010.44;;;9.69;85.91
829;BME280;396;52.558;13.188;2023-05-02T04:13:09;101017.38;;;9.80;86.70
829;BME280;396;52.558;13.188;2023-05-02T04:15:37;101015.91;;;9.93;87.13
829;BME280;396;52.558;13.188;2023-05-02T04:18:04;101019.31;;;10.04;87.30
829;BME280;396;52.558;13.188;2023-05-02T04:20:32;101021.38;;;10.12;87.38
829;BME280;396;52.558;13.188;2023-05-02T04:22:58;101029.97;;;10.19;87.43
829;BME280;396;52.558;13.188;2023-05-02T04:25:25;101028.28;;;10.28;87.60
829;BME280;396;52.558;13.188;2023-05-02T04:27:51;101025.53;;;10.33;87.58
829;BME280;396;52.558;13.188;2023-05-02T04:30:18;101043.03;;;10.41;87.26
829;BME280;396;52.558;13.188;2023-05-02T04:32:46;101042.69;;;10.48;87.43
829;BME280;396;52.558;13.188;2023-05-02T04:35:13;101039.34;;;10.56;86.95
829;BME280;396;52.558;13.188;2023-05-02T04:37:41;101048.19;;;10.61;85.53
829;BME280;396;52.558;13.188;2023-05-02T04:40:08;101048.44;;;10.65;85.23
829;BME280;396;52.558;13.188;2023-05-02T04:42:35;101048.28;;;10.75;83.94
829;BME280;396;52.558;13.188;2023-05-02T04:45:02;101052.44;;;10.92;82.56
829;BME280;396;52.558;13.188;2023-05-02T04:47:29;101056.97;;;10.96;82.17
829;BME280;396;52.558;13.188;2023-05-02T04:49:57;101058.97;;;11.09;81.75
829;BME280;396;52.558;13.188;2023-05-02T04:52:24;101061.59;;;11.15;80.82
829;BME280;396;52.558;13.188;2023-05-02T04:54:50;101059.84;;;11.24;80.10
829;BME280;396;52.558;13.188;2023-05-02T04:57:17;101074.66;;;11.31;79.29
829;BME280;396;52.558;13.188;2023-05-02T04:59:43;101073.75;;;11.36;78.31
829;BME280;396;52.558;13.188;2023-05-02T05:02:10;101081.81;;;11.41;77.93
829;BME280;396;52.558;13.188;2023-05-02T05:04:37;101086.81;;;11.34;78.03
829;BME280;396;52.558;13.188;2023-05-02T05:07:05;101085.34;;;11.42;77.58
829;BME280;396;52.558;13.188;2023-05-02T05:09:31;101096.63;;;11.49;77.10
829;BME280;396;52.558;13.188;2023-05-02T05:11:58;101099.13;;;11.45;77.50
829;BME280;396;52.558;13.188;2023-05-02T05:14:26;101098.84;;;11.47;77.22
829;BME280;396;52.558;13.188;2023-05-02T05:16:52;101101.25;;;11.48;77.28
829;BME280;396;52.558;13.188;2023-05-02T05:19:19;101105.34;;;11.46;77.81
829;BME280;396;52.558;13.188;2023-05-02T05:21:45;101107.25;;;11.45;78.34
829;BME280;396;52.558;13.188;2023-05-02T05:24:13;101113.22;;;11.47;78.21
829;BME280;396;52.558;13.188;2023-05-02T05:26:40;101108.50;;;11.53;78.51
829;BME280;396;52.558;13.188;2023-05-02T05:29:07;101119.50;;;11.61;77.58
829;BME280;396;52.558;13.188;2023-05-02T05:31:33;101125.97;;;11.66;77.75
829;BME280;396;52.558;13.188;2023-05-02T05:34:00;101130.41;;;11.75;77.11
829;BME280;396;52.558;13.188;2023-05-02T05:36:27;101131.94;;;11.81;77.44
829;BME280;396;52.558;13.188;2023-05-02T05:38:53;101139.53;;;11.84;77.21
829;BME280;396;52.558;13.188;2023-05-02T05:41:22;101134.63;;;11.86;77.54
829;BME280;396;52.558;13.188;2023-05-02T05:43:49;101152.94;;;11.95;77.60
829;BME280;396;52.558;13.188;2023-05-02T05:46:15;101151.31;;;11.94;78.13
829;BME280;396;52.558;13.188;2023-05-02T05:48:42;101145.13;;;12.07;77.00
829;BME280;396;52.558;13.188;2023-05-02T05:51:08;101147.66;;;12.17;77.24
829;BME280;396;52.558;13.188;2023-05-02T05:53:35;101158.47;;;12.22;77.61
829;BME280;396;52.558;13.188;2023-05-02T05:56:07;101161.81;;;12.33;77.36
829;BME280;396;52.558;13.188;2023-05-02T05:58:37;101168.72;;;12.25;77.66
829;BME280;396;52.558;13.188;2023-05-02T06:01:03;101173.69;;;12.37;77.90
829;BME280;396;52.558;13.188;2023-05-02T06:03:30;101177.44;;;12.41;78.42
829;BME280;396;52.558;13.188;2023-05-02T06:05:57;101187.00;;;12.52;79.06
829;BME280;396;52.558;13.188;2023-05-02T06:08:24;101187.84;;;12.53;80.16
829;BME280;396;52.558;13.188;2023-05-02T06:10:50;101197.88;;;12.52;80.34
829;BME280;396;52.558;13.188;2023-05-02T06:13:17;101212.59;;;12.65;79.31
829;BME280;396;52.558;13.188;2023-05-02T06:15:45;101215.03;;;12.67;79.45
829;BME280;396;52.558;13.188;2023-05-02T06:18:12;101205.94;;;12.57;80.16
829;BME280;396;52.558;13.188;2023-05-02T06:20:39;101217.91;;;12.56;81.01
829;BME280;396;52.558;13.188;2023-05-02T06:23:05;101209.56;;;12.53;81.08
829;BME280;396;52.558;13.188;2023-05-02T06:25:32;101219.19;;;12.45;82.33
829;BME280;396;52.558;13.188;2023-05-02T06:27:58;101216.19;;;12.47;83.07
829;BME280;396;52.558;13.188;2023-05-02T06:30:25;101221.44;;;12.57;82.21
829;BME280;396;52.558;13.188;2023-05-02T06:32:53;101237.16;;;12.74;81.68
829;BME280;396;52.558;13.188;2023-05-02T06:35:20;101239.09;;;12.73;81.25
829;BME280;396;52.558;13.188;2023-05-02T06:37:46;101241.59;;;12.70;81.81
829;BME280;396;52.558;13.188;2023-05-02T06:40:13;101255.38;;;12.59;82.22
829;BME280;396;52.558;13.188;2023-05-02T06:42:40;101246.91;;;12.61;82.42
829;BME280;396;52.558;13.188;2023-05-02T06:45:07;101248.59;;;12.57;82.89
829;BME280;396;52.558;13.188;2023-05-02T06:47:33;101255.06;;;12.61;83.02
829;BME280;396;52.558;13.188;2023-05-02T06:50:01;101252.38;;;12.75;82.46
829;BME280;396;52.558;13.188;2023-05-02T06:52:28;101261.66;;;12.87;82.04
829;BME280;396;52.558;13.188;2023-05-02T06:54:55;101269.03;;;13.01;81.81
829;BME280;396;52.558;13.188;2023-05-02T06:57:23;101264.00;;;13.08;82.34
829;BME280;396;52.558;13.188;2023-05-02T06:59:49;101272.50;;;13.20;81.43
829;BME280;396;52.558;13.188;2023-05-02T07:02:16;101277.16;;;13.33;81.02
829;BME280;396;52.558;13.188;2023-05-02T07:04:43;101280.88;;;13.51;80.03
829;BME280;396;52.558;13.188;2023-05-02T07:07:11;101293.38;;;13.66;78.39
829;BME280;396;52.558;13.188;2023-05-02T07:09:37;101295.69;;;13.73;79.14
829;BME280;396;52.558;13.188;2023-05-02T07:12:04;101299.19;;;13.87;78.07
829;BME280;396;52.558;13.188;2023-05-02T07:14:31;101294.69;;;13.69;79.07
829;BME280;396;52.558;13.188;2023-05-02T07:16:57;101300.94;;;13.69;79.79
829;BME280;396;52.558;13.188;2023-05-02T07:19:24;101307.59;;;13.77;79.39
829;BME280;396;52.558;13.188;2023-05-02T07:21:50;101306.34;;;13.83;79.22
829;BME280;396;52.558;13.188;2023-05-02T07:24:18;101299.28;;;13.96;80.04
829;BME280;396;52.558;13.188;2023-05-02T07:26:45;101305.50;;;14.10;79.56
829;BME280;396;52.558;13.188;2023-05-02T07:29:12;101311.91;;;14.28;78.43
829;BME280;396;52.558;13.188;2023-05-02T07:31:38;101311.25;;;14.45;76.92
829;BME280;396;52.558;13.188;2023-05-02T07:34:05;101313.41;;;14.56;76.39
829;BME280;396;52.558;13.188;2023-05-02T07:36:31;101314.72;;;14.59;75.33
829;BME280;396;52.558;13.188;2023-05-02T07:38:58;101320.56;;;14.66;75.12
829;BME280;396;52.558;13.188;2023-05-02T07:41:26;101327.56;;;14.58;75.25
829;BME280;396;52.558;13.188;2023-05-02T07:43:52;101328.72;;;14.44;75.93
829;BME280;396;52.558;13.188;2023-05-02T07:46:20;101329.19;;;14.46;76.17
829;BME280;396;52.558;13.188;2023-05-02T07:48:46;101329.81;;;14.43;76.99
829;BME280;396;52.558;13.188;2023-05-02T07:51:13;101336.00;;;14.34;76.76
829;BME280;396;52.558;13.188;2023-05-02T07:53:40;101345.78;;;14.35;76.65
829;BME280;396;52.558;13.188;2023-05-02T07:56:07;101339.22;;;14.50;75.32
829;BME280;396;52.558;13.188;2023-05-02T07:58:35;101342.13;;;14.54;75.19
829;BME280;396;52.558;13.188;2023-05-02T08:01:02;101344.31;;;14.66;75.20
829;BME280;396;52.558;13.188;2023-05-02T08:03:29;101342.00;;;14.81;73.08
829;BME280;396;52.558;13.188;2023-05-02T08:05:56;101353.78;;;14.68;72.89
829;BME280;396;52.558;13.188;2023-05-02T08:08:22;101353.22;;;14.57;73.76
829;BME280;396;52.558;13.188;2023-05-02T08:10:49;101353.16;;;14.71;73.20
829;BME280;396;52.558;13.188;2023-05-02T08:13:16;101355.75;;;14.54;73.87
829;BME280;396;52.558;13.188;2023-05-02T08:15:44;101367.88;;;14.48;74.32
829;BME280;396;52.558;13.188;2023-05-02T08:18:11;101366.84;;;14.57;74.63
829;BME280;396;52.558;13.188;2023-05-02T08:20:37;101367.47;;;14.54;74.46
829;BME280;396;52.558;13.188;2023-05-02T08:23:04;101362.00;;;14.54;75.41
829;BME280;396;52.558;13.188;2023-05-02T08:25:30;101373.97;;;14.67;75.40
829;BME280;396;52.558;13.188;2023-05-02T08:27:57;101376.59;;;14.72;75.32
829;BME280;396;52.558;13.188;2023-05-02T08:30:24;101384.91;;;14.67;75.58
829;BME280;396;52.558;13.188;2023-05-02T08:32:52;101378.25;;;14.59;75.14
829;BME280;396;52.558;13.188;2023-05-02T08:35:18;101384.31;;;14.56;75.39
829;BME280;396;52.558;13.188;2023-05-02T08:37:45;101386.38;;;14.37;76.31
829;BME280;396;52.558;13.188;2023-05-02T08:40:13;101389.28;;;14.41;76.79
829;BME280;396;52.558;13.188;2023-05-02T08:42:40;101387.56;;;14.45;77.30
829;BME280;396;52.558;13.188;2023-05-02T08:45:10;101401.38;;;14.62;77.11
829;BME280;396;52.558;13.188;2023-05-02T08:47:39;101408.44;;;14.85;77.06
829;BME280;396;52.558;13.188;2023-05-02T08:50:08;101405.97;;;14.75;75.75
829;BME280;396;52.558;13.188;2023-05-02T08:52:36;101414.97;;;14.76;75.29
829;BME280;396;52.558;13.188;2023-05-02T08:55:03;101414.16;;;14.75;75.39
829;BME280;396;52.558;13.188;2023-05-02T08:57:31;101413.78;;;14.68;76.14
829;BME280;396;52.558;13.188;2023-05-02T08:59:58;101423.81;;;14.59;76.80
829;BME280;396;52.558;13.188;2023-05-02T09:02:36;101432.78;;;14.46;78.18
829;BME280;396;52.558;13.188;2023-05-02T09:05:10;101439.50;;;14.26;78.85
829;BME280;396;52.558;13.188;2023-05-02T09:07:44;101443.44;;;13.92;80.89
829;BME280;396;52.558;13.188;2023-05-02T09:10:12;101444.53;;;13.77;82.30
829;BME280;396;52.558;13.188;2023-05-02T09:12:38;101443.53;;;13.73;83.51
829;BME280;396;52.558;13.188;2023-05-02T09:15:09;101454.63;;;13.91;82.11
829;BME280;396;52.558;13.188;2023-05-02T09:17:43;101458.44;;;13.89;81.64
829;BME280;396;52.558;13.188;2023-05-02T09:20:12;101459.66;;;13.97;81.29
829;BME280;396;52.558;13.188;2023-05-02T09:22:46;101465.31;;;14.01;80.86
829;BME280;396;52.558;13.188;2023-05-02T09:25:13;101470.19;;;13.90;82.12
829;BME280;396;52.558;13.188;2023-05-02T09:27:53;101477.56;;;14.03;81.83
829;BME280;396;52.558;13.188;2023-05-02T09:30:23;101467.72;;;14.16;81.26
829;BME280;396;52.558;13.188;2023-05-02T09:32:51;101471.97;;;14.36;80.01
829;BME280;396;52.558;13.188;2023-05-02T09:35:21;101478.63;;;14.71;79.77
829;BME280;396;52.558;13.188;2023-05-02T09:37:51;101483.44;;;14.88;77.59
829;BME280;396;52.558;13.188;2023-05-02T09:40:18;101490.69;;;14.93;77.27
829;BME280;396;52.558;13.188;2023-05-02T09:42:45;101484.22;;;14.88;77.47
829;BME280;396;52.558;13.188;2023-05-02T09:45:19;101485.28;;;14.79;78.23
829;BME280;396;52.558;13.188;2023-05-02T09:47:46;101494.16;;;14.71;78.87
829;BME280;396;52.558;13.188;2023-05-02T09:50:31;101508.69;;;14.38;80.36
829;BME280;396;52.558;13.188;2023-05-02T09:53:03;101504.78;;;14.03;82.77
829;BME280;396;52.558;13.188;2023-05-02T09:55:30;101509.28;;;13.94;83.21
829;BME280;396;52.558;13.188;2023-05-02T09:57:57;101505.84;;;13.75;84.21
829;BME280;396;52.558;13.188;2023-05-02T10:00:37;101514.47;;;13.96;83.41
829;BME280;396;52.558;13.188;2023-05-02T10:03:05;101523.25;;;14.06;82.63
829;BME280;396;52.558;13.188;2023-05-02T10:05:35;101527.38;;;13.90;82.68
829;BME280;396;52.558;13.188;2023-05-02T10:08:03;101527.63;;;13.75;82.76
829;BME280;396;52.558;13.188;2023-05-02T10:10:31;101539.59;;;13.60;83.30
829;BME280;396;52.558;13.188;2023-05-02T10:12:59;101542.63;;;13.40;83.54
829;BME280;396;52.558;13.188;2023-05-02T10:15:28;101555.34;;;13.06;83.83
829;BME280;396;52.558;13.188;2023-05-02T10:17:58;101564.00;;;12.71;85.33
829;BME280;396;52.558;13.188;2023-05-02T10:20:31;101562.06;;;12.47;87.42
829;BME280;396;52.558;13.188;2023-05-02T10:23:01;101574.34;;;12.45;88.26
829;BME280;396;52.558;13.188;2023-05-02T10:25:28;101581.53;;;12.35;88.91
829;BME280;396;52.558;13.188;2023-05-02T10:27:55;101582.94;;;12.28;88.74
829;BME280;396;52.558;13.188;2023-05-02T10:30:23;101592.22;;;12.27;88.89
829;BME280;396;52.558;13.188;2023-05-02T10:32:51;101594.91;;;11.98;90.05
829;BME280;396;52.558;13.188;2023-05-02T10:35:19;101589.88;;;12.15;89.72
829;BME280;396;52.558;13.188;2023-05-02T10:37:46;101603.75;;;12.14;88.53
829;BME280;396;52.558;13.188;2023-05-02T10:40:15;101604.91;;;12.02;88.00
829;BME280;396;52.558;13.188;2023-05-02T10:42:44;101618.09;;;11.85;88.71
829;BME280;396;52.558;13.188;2023-05-02T10:45:11;101611.06;;;11.84;88.26
829;BME280;396;52.558;13.188;2023-05-02T10:47:39;101627.34;;;11.79;87.29
829;BME280;396;52.558;13.188;2023-05-02T10:50:06;101622.72;;;11.79;85.49
829;BME280;396;52.558;13.188;2023-05-02T10:52:34;101634.34;;;11.90;84.21
829;BME280;396;52.558;13.188;2023-05-02T10:55:20;101627.06;;;11.80;83.40
829;BME280;396;52.558;13.188;2023-05-02T10:58:21;101626.13;;;12.00;81.97
829;BME280;396;52.558;13.188;2023-05-02T11:00:48;101625.41;;;12.19;78.22
829;BME280;396;52.558;13.188;2023-05-02T11:03:53;101634.63;;;12.47;77.45
829;BME280;396;52.558;13.188;2023-05-02T11:06:21;101639.75;;;12.53;75.20
829;BME280;396;52.558;13.188;2023-05-02T11:08:47;101644.88;;;12.55;71.59
829;BME280;396;52.558;13.188;2023-05-02T11:11:41;101650.94;;;12.47;71.50
829;BME280;396;52.558;13.188;2023-05-02T11:14:08;101643.09;;;12.45;71.56
829;BME280;396;52.558;13.188;2023-05-02T11:17:07;101645.75;;;12.50;72.79
829;BME280;396;52.558;13.188;2023-05-02T11:22:50;101649.34;;;12.70;69.94
829;BME280;396;52.558;13.188;2023-05-02T11:25:37;101645.81;;;12.69;69.65
829;BME280;396;52.558;13.188;2023-05-02T11:28:07;101651.00;;;12.66;70.65
829;BME280;396;52.558;13.188;2023-05-02T11:30:53;101654.56;;;12.66;68.78
829;BME280;396;52.558;13.188;2023-05-02T11:33:20;101649.75;;;12.58;69.92
829;BME280;396;52.558;13.188;2023-05-02T11:35:47;101661.88;;;12.66;69.00
829;BME280;396;52.558;13.188;2023-05-02T11:38:16;101667.63;;;12.35;69.29
829;BME280;396;52.558;13.188;2023-05-02T11:40:53;101666.31;;;12.32;69.10
829;BME280;396;52.558;13.188;2023-05-02T11:43:22;101673.72;;;12.51;69.47
829;BME280;396;52.558;13.188;2023-05-02T11:45:50;101680.91;;;12.66;68.19
829;BME280;396;52.558;13.188;2023-05-02T11:48:19;101680.09;;;12.41;68.02
829;BME280;396;52.558;13.188;2023-05-02T11:50:47;101676.19;;;12.23;68.20
829;BME280;396;52.558;13.188;2023-05-02T11:53:15;101675.97;;;12.73;67.66
829;BME280;396;52.558;13.188;2023-05-02T11:55:47;101679.69;;;13.06;65.24
829;BME280;396;52.558;13.188;2023-05-02T11:58:15;101684.09;;;13.21;65.11
829;BME280;396;52.558;13.188;2023-05-02T12:00:45;101685.66;;;12.79;66.56
829;BME280;396;52.558;13.188;2023-05-02T12:03:22;101689.34;;;12.93;66.23
829;BME280;396;52.558;13.188;2023-05-02T12:05:49;101693.44;;;12.91;66.87
829;BME280;396;52.558;13.188;2023-05-02T12:08:21;101693.47;;;12.61;67.39
829;BME280;396;52.558;13.188;2023-05-02T12:10:48;101698.88;;;12.67;66.97
829;BME280;396;52.558;13.188;2023-05-02T12:13:16;101706.22;;;12.90;66.46
829;BME280;396;52.558;13.188;2023-05-02T12:15:45;101701.03;;;12.94;65.93
829;BME280;396;52.558;13.188;2023-05-02T12:18:12;101710.34;;;13.11;65.74
829;BME280;396;52.558;13.188;2023-05-02T12:20:39;101715.19;;;13.38;64.39
829;BME280;396;52.558;13.188;2023-05-02T12:23:07;101716.16;;;13.29;63.96
829;BME280;396;52.558;13.188;2023-05-02T12:25:37;101713.53;;;13.80;64.00
829;BME280;396;52.558;13.188;2023-05-02T12:28:04;101716.81;;;14.15;61.70
829;BME280;396;52.558;13.188;2023-05-02T12:30:31;101731.16;;;14.86;58.05
829;BME280;396;52.558;13.188;2023-05-02T12:33:00;101735.19;;;14.88;58.48
829;BME280;396;52.558;13.188;2023-05-02T12:35:28;101726.00;;;14.98;56.92
829;BME280;396;52.558;13.188;2023-05-02T12:38:07;101735.00;;;15.54;58.76
829;BME280;396;52.558;13.188;2023-05-02T12:40:34;101727.81;;;15.30;55.93
829;BME280;396;52.558;13.188;2023-05-02T12:43:03;101729.13;;;15.47;55.40
829;BME280;396;52.558;13.188;2023-05-02T12:45:32;101719.38;;;16.04;53.53
829;BME280;396;52.558;13.188;2023-05-02T12:48:02;101730.28;;;15.82;53.41
829;BME280;396;52.558;13.188;2023-05-02T12:50:42;101725.09;;;14.75;55.33
829;BME280;396;52.558;13.188;2023-05-02T12:53:08;101730.25;;;15.32;55.20
829;BME280;396;52.558;13.188;2023-05-02T12:55:35;101734.56;;;15.74;53.43
829;BME280;396;52.558;13.188;2023-05-02T12:58:03;101732.53;;;15.66;52.95
829;BME280;396;52.558;13.188;2023-05-02T13:00:31;101733.34;;;15.53;53.29
829;BME280;396;52.558;13.188;2023-05-02T13:03:00;101745.78;;;16.09;51.03
829;BME280;396;52.558;13.188;2023-05-02T13:05:26;101745.91;;;16.26;49.47
829;BME280;396;52.558;13.188;2023-05-02T13:07:53;101750.84;;;16.38;50.89
829;BME280;396;52.558;13.188;2023-05-02T13:10:21;101755.03;;;15.99;49.91
829;BME280;396;52.558;13.188;2023-05-02T13:12:49;101748.72;;;15.49;50.95
829;BME280;396;52.558;13.188;2023-05-02T13:15:16;101748.38;;;15.14;50.88
829;BME280;396;52.558;13.188;2023-05-02T13:17:43;101755.34;;;14.60;53.39
829;BME280;396;52.558;13.188;2023-05-02T13:20:12;101755.75;;;14.34;54.69
829;BME280;396;52.558;13.188;2023-05-02T13:22:38;101756.34;;;14.31;54.76
829;BME280;396;52.558;13.188;2023-05-02T13:25:06;101768.59;;;13.96;55.91
829;BME280;396;52.558;13.188;2023-05-02T13:27:33;101769.09;;;13.79;55.40
829;BME280;396;52.558;13.188;2023-05-02T13:30:00;101764.84;;;13.49;55.51
829;BME280;396;52.558;13.188;2023-05-02T13:32:27;101771.53;;;12.85;58.04
829;BME280;396;52.558;13.188;2023-05-02T13:34:54;101772.16;;;13.06;59.00
829;BME280;396;52.558;13.188;2023-05-02T13:37:22;101779.66;;;13.14;57.46